Time;durP1;ratioP1;P1;durP2;ratioP2;P2;SDS_P1;SDS_P2;PMS_P1;PMS_P2;Temp;Humidity;BMP_temperature;BMP_pressure;BME280_temperature;BME280_humidity;BME280_pressure;Samples;Min_cycle;Max_cycle;Signal;HPM_P1;HPM_P2
2024/02/04 00:02:03;;;;;;;3.50;3.20;;;;;;;8.43;94.62;99013.94;5068587;28;20036;-71
2024/02/04 00:04:29;;;;;;;3.92;3.63;;;;;;;8.43;94.55;99020.16;5075005;28;20016;-70
2024/02/04 00:06:55;;;;;;;4.03;3.58;;;;;;;8.43;93.87;99013.94;5071878;28;20037;-71
2024/02/04 00:09:20;;;;;;;3.63;3.38;;;;;;;8.40;93.65;98998.28;5075479;28;20598;-71
2024/02/04 00:11:46;;;;;;;3.42;3.22;;;;;;;8.42;94.31;99012.31;5071681;28;20036;-70
2024/02/04 00:14:12;;;;;;;3.60;3.30;;;;;;;8.40;93.67;99014.41;5070959;28;20021;-70
2024/02/04 00:16:37;;;;;;;3.30;3.00;;;;;;;8.48;93.58;98995.34;5070466;28;20119;-70
2024/02/04 00:19:03;;;;;;;3.58;3.28;;;;;;;8.46;94.14;98992.06;5075059;28;20052;-70
2024/02/04 00:21:29;;;;;;;3.45;3.25;;;;;;;8.54;93.65;98989.97;5066803;28;20044;-70
2024/02/04 00:23:54;;;;;;;3.50;3.20;;;;;;;8.50;93.64;98988.75;5055876;28;20036;-70
2024/02/04 00:26:20;;;;;;;3.45;3.15;;;;;;;8.44;93.44;98980.72;5073386;28;20046;-70
2024/02/04 00:28:45;;;;;;;3.45;3.15;;;;;;;8.57;93.30;99007.50;5074595;28;20024;-71
2024/02/04 00:31:11;;;;;;;3.70;3.40;;;;;;;8.52;93.39;98996.59;5074660;28;20111;-71
2024/02/04 00:33:36;;;;;;;3.47;3.17;;;;;;;8.47;92.82;98983.00;5074424;28;20417;-71
2024/02/04 00:36:02;;;;;;;3.10;2.90;;;;;;;8.48;93.84;98990.00;5074635;28;20082;-71
2024/02/04 00:38:27;;;;;;;3.33;3.13;;;;;;;8.47;93.77;98985.66;5066473;28;20052;-71
2024/02/04 00:40:54;;;;;;;3.47;3.28;;;;;;;8.47;93.19;98989.16;5070288;28;20032;-71
2024/02/04 00:43:20;;;;;;;3.70;3.40;;;;;;;8.43;93.87;98982.56;5074168;28;20021;-71
2024/02/04 00:45:46;;;;;;;3.60;3.30;;;;;;;8.51;93.65;98978.84;5071774;28;20412;-70
2024/02/04 00:48:11;;;;;;;3.28;2.97;;;;;;;8.51;93.31;98986.88;5039699;28;20025;-72
2024/02/04 00:50:36;;;;;;;3.55;3.10;;;;;;;8.47;93.15;98996.41;5069217;28;20103;-72
2024/02/04 00:53:02;;;;;;;3.50;3.20;;;;;;;8.48;93.03;98990.00;5071346;28;20052;-71
2024/02/04 00:55:27;;;;;;;3.30;3.00;;;;;;;8.46;92.94;98997.44;5073947;28;20033;-71
2024/02/04 00:57:55;;;;;;;3.42;3.10;;;;;;;8.46;93.27;99003.63;5073471;28;20029;-71
2024/02/04 01:00:20;;;;;;;3.40;3.10;;;;;;;8.48;92.64;98990.81;5066485;28;20037;-72
2024/02/04 01:02:46;;;;;;;3.10;2.80;;;;;;;8.51;93.04;98994.94;5069598;28;20024;-71
2024/02/04 01:05:12;;;;;;;3.63;3.25;;;;;;;8.46;93.21;99000.13;5070344;28;20037;-71
2024/02/04 01:07:38;;;;;;;3.08;2.88;;;;;;;8.14;93.30;98946.31;5073112;28;20029;-71
2024/02/04 01:10:03;;;;;;;3.38;3.08;;;;;;;8.44;93.06;98997.66;5073259;28;20048;-71
2024/02/04 01:12:29;;;;;;;3.17;2.97;;;;;;;8.54;92.61;98989.16;5073015;28;20491;-72
2024/02/04 01:14:54;;;;;;;3.95;3.30;;;;;;;8.48;92.85;98990.00;5067567;28;20108;-71
2024/02/04 01:17:20;;;;;;;3.67;2.90;;;;;;;8.42;92.63;98985.47;5071469;28;20036;-70
2024/02/04 01:19:45;;;;;;;3.20;3.00;;;;;;;8.57;92.16;98994.09;5069955;28;20091;-70
2024/02/04 01:22:11;;;;;;;3.40;3.20;;;;;;;8.45;92.40;98982.38;5072756;28;20047;-70
2024/02/04 01:24:36;;;;;;;3.72;3.42;;;;;;;8.53;92.54;98982.13;5072599;28;20036;-70
2024/02/04 01:27:02;;;;;;;4.50;3.50;;;;;;;8.50;92.77;98993.28;5071438;28;20020;-70
2024/02/04 01:29:27;;;;;;;3.88;3.50;;;;;;;8.47;93.04;98989.16;5071368;28;20029;-70
2024/02/04 01:31:53;;;;;;;4.10;3.75;;;;;;;8.55;92.44;98983.56;5072736;28;20122;-70
2024/02/04 01:34:19;;;;;;;3.97;3.60;;;;;;;8.49;92.92;98976.38;5071410;28;20127;-71
2024/02/04 01:36:44;;;;;;;4.30;3.90;;;;;;;8.50;92.58;98982.53;5071709;28;20113;-71
2024/02/04 01:39:10;;;;;;;4.70;4.30;;;;;;;8.53;93.05;98987.50;5072517;28;20039;-71
2024/02/04 01:41:36;;;;;;;4.63;4.32;;;;;;;8.42;92.94;98974.75;5072544;28;20025;-71
2024/02/04 01:44:01;;;;;;;4.35;3.95;;;;;;;8.50;93.44;98982.53;5072015;28;20029;-71
2024/02/04 01:46:27;;;;;;;4.55;4.25;;;;;;;8.47;92.87;98988.34;5071376;28;20400;-71
2024/02/04 01:48:53;;;;;;;4.72;4.32;;;;;;;8.48;93.08;98977.41;5037290;28;20029;-71
2024/02/04 01:51:20;;;;;;;4.55;4.25;;;;;;;8.51;92.95;98973.47;5034632;28;20025;-71
2024/02/04 01:53:46;;;;;;;5.45;4.60;;;;;;;8.46;93.56;98970.59;5067888;28;20047;-70
2024/02/04 01:56:12;;;;;;;4.80;4.50;;;;;;;8.43;93.00;98971.00;5065808;28;20016;-71
2024/02/04 01:58:38;;;;;;;4.47;4.18;;;;;;;8.43;93.83;98979.06;5051782;28;20037;-71
2024/02/04 02:01:03;;;;;;;4.78;4.40;;;;;;;8.37;93.39;98974.53;5071211;28;20023;-71
2024/02/04 02:03:31;;;;;;;5.05;4.65;;;;;;;8.40;93.77;98974.97;5072046;28;20107;-71
2024/02/04 02:05:57;;;;;;;5.47;4.95;;;;;;;8.39;93.64;98964.41;5068193;28;20435;-70
2024/02/04 02:08:23;;;;;;;5.80;5.30;;;;;;;8.35;93.39;98969.41;5051763;28;20069;-71
2024/02/04 02:10:50;;;;;;;5.43;5.00;;;;;;;8.41;93.39;98965.84;5071010;28;20166;-71
2024/02/04 02:13:20;;;;;;;5.20;4.80;;;;;;;8.42;93.08;98970.22;5070705;28;20488;-70
2024/02/04 02:15:51;;;;;;;5.30;4.80;;;;;;;8.38;94.01;98966.28;5054321;28;20024;-70
2024/02/04 02:18:17;;;;;;;5.50;5.00;;;;;;;8.29;94.39;98959.50;5070685;28;20085;-70
2024/02/04 02:20:55;;;;;;;5.72;5.25;;;;;;;8.30;94.45;98964.66;5071922;28;20107;-70
2024/02/04 02:23:30;;;;;;;6.00;5.57;;;;;;;8.29;94.68;98960.31;5068186;28;20040;-70
2024/02/04 02:25:58;;;;;;;6.18;5.68;;;;;;;8.18;94.67;98952.91;5054316;28;20503;-70
2024/02/04 02:28:23;;;;;;;6.10;5.60;;;;;;;8.29;94.73;98971.06;5070698;28;20381;-71
2024/02/04 02:30:49;;;;;;;6.47;5.88;;;;;;;8.24;95.29;98973.50;5054439;28;20047;-70
2024/02/04 02:33:14;;;;;;;6.70;6.10;;;;;;;8.09;95.80;98962.22;5050734;28;20020;-72
2024/02/04 02:35:40;;;;;;;6.60;6.00;;;;;;;8.24;95.84;98984.25;5062181;28;20067;-72
2024/02/04 02:38:09;;;;;;;6.22;5.68;;;;;;;8.26;95.55;98987.56;5071847;28;20415;-70
2024/02/04 02:40:47;;;;;;;7.20;6.60;;;;;;;8.22;95.57;98985.47;5072795;28;20032;-70
2024/02/04 02:43:13;;;;;;;7.30;6.70;;;;;;;8.17;95.57;98978.06;5063738;28;20039;-70
2024/02/04 02:45:42;;;;;;;7.20;6.60;;;;;;;8.22;95.42;98986.31;5036170;28;20033;-70
2024/02/04 02:48:09;;;;;;;8.48;7.78;;;;;;;8.24;96.29;98983.41;5044669;28;20045;-70
2024/02/04 02:50:35;;;;;;;8.35;7.55;;;;;;;8.16;95.96;98981.81;5070239;28;20021;-71
2024/02/04 02:53:01;;;;;;;7.35;6.78;;;;;;;8.16;96.35;98981.81;5074192;28;20033;-71
2024/02/04 02:55:26;;;;;;;7.97;7.28;;;;;;;8.04;97.24;98988.84;5075821;28;20024;-71
2024/02/04 02:57:52;;;;;;;8.88;8.18;;;;;;;8.12;96.36;98985.91;5074324;28;20545;-71
2024/02/04 03:00:18;;;;;;;9.32;8.35;;;;;;;8.18;97.00;98985.09;5075887;28;20048;-70
2024/02/04 03:02:43;;;;;;;8.30;7.60;;;;;;;8.17;96.15;98951.25;5074010;28;20033;-71
2024/02/04 03:05:09;;;;;;;8.50;7.80;;;;;;;8.19;96.18;98961.78;5074513;28;20434;-70
2024/02/04 03:07:35;;;;;;;9.27;8.48;;;;;;;8.07;96.39;98945.50;5068198;28;20044;-71
2024/02/04 03:10:00;;;;;;;9.07;8.27;;;;;;;8.22;95.91;98974.75;5073482;28;20020;-71
2024/02/04 03:12:26;;;;;;;9.73;8.80;;;;;;;8.22;96.47;98980.94;5053946;28;20029;-71
2024/02/04 03:14:52;;;;;;;9.93;8.88;;;;;;;8.23;96.14;98971.88;5070220;28;20115;-71
2024/02/04 03:17:20;;;;;;;10.27;9.38;;;;;;;8.16;96.23;98971.06;5073976;28;20040;-70
2024/02/04 03:19:47;;;;;;;9.77;8.95;;;;;;;8.17;96.25;98970.03;5064362;28;20032;-70
2024/02/04 03:22:13;;;;;;;10.48;9.48;;;;;;;8.00;96.86;98939.34;5075092;28;20029;-70
2024/02/04 03:24:38;;;;;;;10.05;9.15;;;;;;;8.11;96.49;98960.13;5074777;28;20055;-71
2024/02/04 03:27:04;;;;;;;9.65;8.85;;;;;;;8.07;97.37;98966.97;5071536;28;20554;-70
2024/02/04 03:29:29;;;;;;;10.55;9.65;;;;;;;8.08;96.89;98965.91;5070058;28;20066;-71
2024/02/04 03:31:58;;;;;;;10.20;9.30;;;;;;;8.08;97.18;98968.59;5073613;28;20392;-71
2024/02/04 03:34:24;;;;;;;10.32;9.43;;;;;;;8.14;96.26;98973.16;5073423;28;20036;-70
2024/02/04 03:36:49;;;;;;;12.00;10.77;;;;;;;8.15;96.52;98980.13;5065435;28;20036;-70
2024/02/04 03:39:15;;;;;;;12.07;10.88;;;;;;;8.21;96.67;98973.91;5071628;28;20398;-70
2024/02/04 03:41:40;;;;;;;11.18;10.18;;;;;;;8.23;96.75;98963.81;5056780;28;20492;-70
2024/02/04 03:44:06;;;;;;;10.95;9.95;;;;;;;8.21;96.22;98963.19;5073082;28;20477;-71
2024/02/04 03:46:32;;;;;;;10.57;9.68;;;;;;;8.15;96.14;98964.03;5073168;28;20025;-70
2024/02/04 03:48:57;;;;;;;11.10;10.20;;;;;;;8.16;96.15;98971.06;5073336;28;20020;-70
2024/02/04 03:51:23;;;;;;;11.40;10.30;;;;;;;8.18;96.38;98974.38;5073221;28;20051;-70
2024/02/04 03:53:50;;;;;;;10.85;9.85;;;;;;;8.09;96.10;98956.84;5073307;28;20136;-70
2024/02/04 03:56:16;;;;;;;12.60;11.30;;;;;;;8.19;95.79;98976.00;5053220;28;20033;-70
2024/02/04 03:58:41;;;;;;;12.27;11.07;;;;;;;8.18;96.57;98973.53;5070302;28;20074;-71
2024/02/04 04:01:10;;;;;;;11.40;10.40;;;;;;;8.21;95.96;98968.56;5073060;28;20052;-70
2024/02/04 04:03:36;;;;;;;12.30;11.00;;;;;;;8.17;95.94;98953.91;5072054;28;20036;-70
2024/02/04 04:06:01;;;;;;;11.35;10.25;;;;;;;8.10;95.65;98954.97;5070544;28;20102;-69
2024/02/04 04:08:26;;;;;;;10.80;9.80;;;;;;;8.17;96.27;98967.34;5067771;28;20025;-71
2024/02/04 04:10:52;;;;;;;11.07;10.07;;;;;;;8.20;95.73;98969.59;5074346;28;20408;-70
2024/02/04 04:13:17;;;;;;;13.20;11.90;;;;;;;8.23;95.47;98960.31;5070110;28;20021;-70
2024/02/04 04:15:43;;;;;;;12.95;11.65;;;;;;;8.14;96.56;98967.78;5073049;28;20064;-70
2024/02/04 04:18:11;;;;;;;13.50;12.27;;;;;;;8.13;95.72;98965.28;5066141;28;20048;-69
2024/02/04 04:20:36;;;;;;;14.20;12.85;;;;;;;8.17;96.18;98961.97;5074467;28;20036;-70
2024/02/04 04:23:02;;;;;;;13.10;11.60;;;;;;;8.12;96.32;98959.09;5073914;28;20020;-69
2024/02/04 04:25:27;;;;;;;13.35;12.05;;;;;;;8.14;96.57;98957.03;5074234;28;20094;-69
2024/02/04 04:27:53;;;;;;;13.13;11.93;;;;;;;8.14;95.78;98951.69;5071999;28;20016;-69
2024/02/04 04:30:18;;;;;;;13.38;12.18;;;;;;;8.21;95.98;98957.81;5068277;28;20119;-70
2024/02/04 04:32:44;;;;;;;13.30;12.00;;;;;;;8.19;95.98;98943.78;5073691;28;20035;-69
2024/02/04 04:35:09;;;;;;;13.25;11.95;;;;;;;8.20;95.40;98945.47;5056980;28;20600;-70
2024/02/04 04:37:34;;;;;;;12.82;11.73;;;;;;;8.24;95.72;98940.47;5074434;28;20031;-69
2024/02/04 04:40:00;;;;;;;13.23;11.95;;;;;;;8.16;95.84;98936.19;5070308;28;20040;-69
2024/02/04 04:42:25;;;;;;;13.02;11.75;;;;;;;8.16;95.62;98933.50;5074059;28;20020;-69
2024/02/04 04:44:51;;;;;;;13.55;12.15;;;;;;;8.23;95.84;98931.63;5067984;28;20124;-71
2024/02/04 04:47:16;;;;;;;12.07;10.95;;;;;;;8.21;95.47;98922.94;5074317;28;20017;-71
2024/02/04 04:49:42;;;;;;;11.40;10.43;;;;;;;8.26;95.17;98927.75;5072876;28;20412;-70
2024/02/04 04:52:07;;;;;;;10.80;9.77;;;;;;;8.19;95.14;98930.38;5074005;28;20110;-71
2024/02/04 04:54:32;;;;;;;10.60;9.70;;;;;;;8.22;95.57;98937.19;5071921;28;20064;-71
2024/02/04 04:56:58;;;;;;;10.90;9.80;;;;;;;8.24;95.32;98929.75;5073873;28;20036;-72
2024/02/04 04:59:23;;;;;;;10.57;9.65;;;;;;;8.32;94.68;98937.63;5071908;28;20039;-71
2024/02/04 05:01:49;;;;;;;10.45;9.55;;;;;;;8.25;95.27;98942.97;5073936;28;20020;-70
2024/02/04 05:04:16;;;;;;;11.00;10.00;;;;;;;8.24;94.92;98930.59;5073736;28;20043;-72
2024/02/04 05:06:41;;;;;;;11.40;10.30;;;;;;;8.24;95.02;98929.75;5069920;28;20034;-70
2024/02/04 05:09:07;;;;;;;11.00;9.98;;;;;;;8.23;95.37;98937.00;5073934;28;20484;-69
2024/02/04 05:11:32;;;;;;;10.60;9.60;;;;;;;8.27;95.22;98935.56;5070400;28;20021;-70
2024/02/04 05:13:57;;;;;;;9.50;8.60;;;;;;;8.22;95.39;98935.34;5073472;28;20040;-69
2024/02/04 05:16:23;;;;;;;9.63;8.73;;;;;;;8.21;94.99;98930.19;5077130;28;20025;-69
2024/02/04 05:18:48;;;;;;;10.50;9.55;;;;;;;8.08;94.86;98914.94;5072125;28;20071;-72
2024/02/04 05:21:14;;;;;;;153.32;99.22;;;;;;;8.09;94.95;98938.06;5074058;28;20020;-69
2024/02/04 05:23:39;;;;;;;15.45;14.10;;;;;;;8.15;94.97;98931.84;5073580;28;20036;-70
2024/02/04 05:26:05;;;;;;;8.50;7.70;;;;;;;8.03;95.27;98917.44;5066954;28;20024;-70
2024/02/04 05:28:31;;;;;;;8.23;7.45;;;;;;;8.10;95.46;98937.00;5055985;28;20044;-72
2024/02/04 05:30:56;;;;;;;9.70;8.88;;;;;;;8.08;95.75;98928.34;5073137;28;20035;-73
2024/02/04 05:33:22;;;;;;;9.55;8.65;;;;;;;8.01;95.82;98940.97;5071621;28;20028;-70
2024/02/04 05:35:47;;;;;;;10.95;10.05;;;;;;;7.98;96.18;98925.28;5071974;28;20080;-69
2024/02/04 05:38:12;;;;;;;10.10;9.10;;;;;;;8.06;96.08;98925.06;5073259;28;20041;-70
2024/02/04 05:40:38;;;;;;;10.02;9.02;;;;;;;8.01;96.65;98918.69;5071889;28;20033;-71
2024/02/04 05:43:07;;;;;;;14.45;13.25;;;;;;;7.84;96.78;98910.25;5071530;28;20032;-70
2024/02/04 05:45:33;;;;;;;11.35;10.35;;;;;;;7.97;96.67;98934.38;5073036;28;20078;-73
2024/02/04 05:47:59;;;;;;;13.68;12.57;;;;;;;7.96;96.03;98938.06;5073440;28;20538;-71
2024/02/04 05:50:24;;;;;;;9.73;8.93;;;;;;;7.97;96.85;98934.38;5071888;28;20511;-71
2024/02/04 05:52:49;;;;;;;8.70;7.90;;;;;;;7.86;96.06;98921.63;5054775;28;20062;-69
2024/02/04 05:55:15;;;;;;;9.82;8.93;;;;;;;7.92;96.79;98931.50;5072929;28;20391;-73
2024/02/04 05:57:40;;;;;;;8.75;7.88;;;;;;;7.87;96.51;98907.16;5071790;28;20374;-71
2024/02/04 06:00:08;;;;;;;10.75;9.85;;;;;;;7.94;97.01;98918.69;5071681;28;20021;-71
2024/02/04 06:02:34;;;;;;;9.43;8.50;;;;;;;7.89;97.05;98920.38;5071347;28;20040;-71
2024/02/04 06:05:00;;;;;;;8.98;8.18;;;;;;;7.86;96.89;98916.25;5071614;28;20373;-70
2024/02/04 06:07:25;;;;;;;9.05;8.15;;;;;;;7.89;97.16;98918.50;5072587;28;20032;-71
2024/02/04 06:09:50;;;;;;;7.97;7.30;;;;;;;7.86;96.99;98926.97;5072686;28;20101;-73
2024/02/04 06:12:16;;;;;;;9.25;8.45;;;;;;;7.89;96.73;98921.19;5072744;28;20033;-72
2024/02/04 06:14:41;;;;;;;7.88;7.18;;;;;;;7.87;96.57;98920.56;5072415;28;20095;-75
2024/02/04 06:17:08;;;;;;;7.32;6.63;;;;;;;7.80;97.26;98922.44;5072205;28;20036;-74
2024/02/04 06:19:35;;;;;;;6.85;6.25;;;;;;;7.86;96.46;98918.94;5072264;28;20028;-72
2024/02/04 06:22:00;;;;;;;7.72;7.03;;;;;;;7.89;96.98;98910.44;5070094;28;20049;-71
2024/02/04 06:24:26;;;;;;;7.03;6.43;;;;;;;7.88;97.17;98902.63;5071732;28;20032;-70
2024/02/04 06:26:51;;;;;;;6.57;6.00;;;;;;;7.88;96.38;98908.81;5072139;28;20492;-71
2024/02/04 06:29:17;;;;;;;6.70;6.10;;;;;;;7.77;96.69;98896.03;5072215;28;20024;-72
2024/02/04 06:31:46;;;;;;;6.28;5.75;;;;;;;7.85;97.17;98914.59;5072388;28;20115;-71
2024/02/04 06:34:12;;;;;;;6.18;5.43;;;;;;;7.80;96.82;98906.34;5066666;28;20040;-70
2024/02/04 06:36:38;;;;;;;6.95;6.35;;;;;;;7.84;97.00;98912.13;5072041;28;20041;-71
2024/02/04 06:39:03;;;;;;;6.68;6.18;;;;;;;7.80;97.14;98919.75;5067883;28;20070;-72
2024/02/04 06:41:28;;;;;;;7.97;7.28;;;;;;;7.81;96.88;98917.91;5071902;28;20467;-71
2024/02/04 06:43:54;;;;;;;6.53;5.93;;;;;;;7.80;96.68;98922.44;5062828;28;20071;-71
2024/02/04 06:46:26;;;;;;;7.93;7.22;;;;;;;7.76;96.74;98904.28;5071226;28;20048;-71
2024/02/04 06:48:52;;;;;;;6.88;6.00;;;;;;;7.83;96.63;98916.66;5070028;28;20033;-71
2024/02/04 06:51:18;;;;;;;6.78;6.13;;;;;;;7.83;96.46;98916.66;5063416;28;20032;-72
2024/02/04 06:53:43;;;;;;;6.47;5.85;;;;;;;7.85;96.78;98909.22;5069509;28;20063;-71
2024/02/04 06:56:08;;;;;;;5.93;5.47;;;;;;;7.87;96.96;98912.53;5070952;28;20021;-70
2024/02/04 06:58:37;;;;;;;6.15;5.65;;;;;;;7.95;96.43;98915.00;5065403;28;20060;-71
2024/02/04 07:01:02;;;;;;;6.82;5.40;;;;;;;7.88;96.68;98922.22;5063213;28;20098;-71
2024/02/04 07:03:29;;;;;;;5.53;5.05;;;;;;;7.88;97.22;98918.72;5070489;28;20040;-71
2024/02/04 07:05:54;;;;;;;6.15;5.55;;;;;;;7.74;96.94;98907.19;5070274;28;20099;-71
2024/02/04 07:08:20;;;;;;;6.18;5.68;;;;;;;7.82;96.93;98904.28;5071506;28;20043;-72
2024/02/04 07:10:45;;;;;;;6.65;5.95;;;;;;;7.77;96.86;98890.66;5071026;28;20020;-72
2024/02/04 07:13:12;;;;;;;6.10;5.50;;;;;;;7.88;97.01;98908.00;5067213;28;20562;-72
2024/02/04 07:15:37;;;;;;;5.75;5.25;;;;;;;7.96;96.57;98905.91;5069863;28;20029;-72
2024/02/04 07:18:03;;;;;;;6.13;5.57;;;;;;;7.87;96.70;98893.75;5069938;28;20036;-73
2024/02/04 07:20:28;;;;;;;6.60;5.97;;;;;;;7.94;96.78;98907.97;5071138;28;20024;-72
2024/02/04 07:22:54;;;;;;;6.25;5.72;;;;;;;7.90;96.28;98906.75;5069475;28;20118;-72
2024/02/04 07:25:20;;;;;;;6.07;5.57;;;;;;;7.95;96.86;98920.34;5070694;28;20028;-70
2024/02/04 07:27:45;;;;;;;6.30;5.80;;;;;;;7.88;96.55;98914.19;5071191;28;20045;-71
2024/02/04 07:30:11;;;;;;;6.30;5.70;;;;;;;7.88;96.70;98924.91;5069607;28;20028;-72
2024/02/04 07:32:37;;;;;;;6.05;5.55;;;;;;;7.80;97.25;98911.72;5066861;28;20115;-72
2024/02/04 07:35:02;;;;;;;5.90;5.40;;;;;;;7.89;96.84;98899.72;5071325;28;20682;-71
2024/02/04 07:37:28;;;;;;;5.80;5.30;;;;;;;7.87;97.12;98896.44;5074236;28;20040;-72
2024/02/04 07:39:53;;;;;;;6.45;5.85;;;;;;;7.86;96.82;98897.47;5072825;28;20029;-72
2024/02/04 07:42:18;;;;;;;5.90;5.40;;;;;;;7.94;96.90;98913.34;5074194;28;20043;-72
2024/02/04 07:44:44;;;;;;;6.53;5.60;;;;;;;7.85;97.01;98908.41;5071333;28;20024;-72
2024/02/04 07:47:09;;;;;;;5.90;5.40;;;;;;;7.82;97.60;98904.28;5074225;28;20044;-73
2024/02/04 07:49:35;;;;;;;5.80;5.30;;;;;;;7.82;97.87;98909.63;5072840;28;20069;-72
2024/02/04 07:52:00;;;;;;;5.88;5.38;;;;;;;7.88;97.98;98919.53;5074063;28;20036;-72
2024/02/04 07:54:25;;;;;;;6.30;5.68;;;;;;;7.88;97.80;98927.59;5073814;28;20021;-73
2024/02/04 07:56:51;;;;;;;6.60;6.10;;;;;;;7.74;96.82;98896.47;5072799;28;20120;-73
2024/02/04 07:59:16;;;;;;;8.65;7.85;;;;;;;7.97;96.72;98931.69;5073823;28;20034;-72
2024/02/04 08:01:41;;;;;;;5.88;5.38;;;;;;;7.88;97.79;98908.81;5051743;28;20420;-72
2024/02/04 08:05:02;;;;;;;5.80;5.30;;;;;;;7.95;97.70;98923.03;5073784;28;20078;-71
2024/02/04 08:07:34;;;;;;;6.20;5.60;;;;;;;7.95;97.27;98920.34;5068837;28;20407;-72
2024/02/04 08:10:02;;;;;;;5.72;5.05;;;;;;;7.99;97.15;98926.09;5055593;28;20062;-72
2024/02/04 08:12:28;;;;;;;6.57;5.63;;;;;;;7.94;97.38;98918.69;5074497;28;20064;-72
2024/02/04 08:14:53;;;;;;;5.95;5.40;;;;;;;7.99;97.37;98916.22;5056021;28;20043;-72
2024/02/04 08:17:19;;;;;;;6.20;5.70;;;;;;;7.98;97.18;98909.19;5072352;28;20468;-71
2024/02/04 08:19:44;;;;;;;6.90;6.30;;;;;;;7.99;97.42;98920.75;5071182;28;20033;-72
2024/02/04 08:22:10;;;;;;;45.78;31.38;;;;;;;7.97;97.00;98912.91;5067552;28;20052;-72
2024/02/04 08:24:36;;;;;;;47.50;31.65;;;;;;;8.03;96.81;98914.75;5073631;28;20044;-72
2024/02/04 08:27:01;;;;;;;6.65;6.05;;;;;;;7.96;96.81;98915.81;5073646;28;20031;-72
2024/02/04 08:29:27;;;;;;;9.48;8.20;;;;;;;8.05;96.82;98919.94;5073431;28;20074;-72
2024/02/04 08:31:52;;;;;;;17.73;12.02;;;;;;;8.00;96.75;98923.25;5073441;28;20526;-72
2024/02/04 08:34:20;;;;;;;6.40;5.80;;;;;;;8.02;97.35;98921.16;5072947;28;20032;-71
2024/02/04 08:36:45;;;;;;;7.07;6.47;;;;;;;8.09;96.89;98926.50;5062329;28;20024;-71
2024/02/04 08:39:11;;;;;;;6.90;6.30;;;;;;;8.11;96.19;98909.16;5069864;28;20045;-72
2024/02/04 08:41:36;;;;;;;7.18;6.40;;;;;;;8.15;96.27;98918.44;5065093;28;20020;-72
2024/02/04 08:44:01;;;;;;;6.30;5.80;;;;;;;8.23;96.21;98937.00;5061741;28;20111;-72
2024/02/04 08:46:27;;;;;;;6.07;5.57;;;;;;;8.18;96.80;98928.75;5072613;28;20286;-72
2024/02/04 08:48:52;;;;;;;5.47;4.97;;;;;;;8.18;96.82;98927.94;5073178;28;20032;-72
2024/02/04 08:51:19;;;;;;;5.68;5.18;;;;;;;8.07;96.43;98916.00;5073129;28;20392;-72
2024/02/04 08:53:44;;;;;;;5.50;5.10;;;;;;;8.08;96.53;98908.75;5071353;28;20044;-71
2024/02/04 08:56:10;;;;;;;5.70;5.20;;;;;;;8.21;96.18;98912.22;5071562;28;20028;-72
2024/02/04 08:58:37;;;;;;;5.43;4.97;;;;;;;7.99;96.83;98900.13;5071476;28;20411;-71
2024/02/04 09:01:05;;;;;;;5.30;4.80;;;;;;;8.00;96.17;98907.16;5068987;28;20353;-71
2024/02/04 09:03:30;;;;;;;5.07;4.57;;;;;;;8.10;96.63;98942.38;5067450;28;20077;-72
2024/02/04 09:05:57;;;;;;;5.07;4.65;;;;;;;8.09;96.83;98930.03;5072668;28;20032;-71
2024/02/04 09:08:22;;;;;;;4.82;4.43;;;;;;;8.21;96.12;98911.41;5067112;28;20045;-72
2024/02/04 09:10:47;;;;;;;3.95;3.65;;;;;;;8.14;96.45;98908.75;5072735;28;20020;-72
2024/02/04 09:13:13;;;;;;;4.43;4.13;;;;;;;8.01;96.32;98898.03;5075348;28;20036;-72
2024/02/04 09:15:38;;;;;;;4.03;3.72;;;;;;;8.17;96.65;98902.94;5072473;28;20059;-71
2024/02/04 09:18:04;;;;;;;4.75;4.35;;;;;;;8.25;96.05;98910.78;5072188;28;20039;-72
2024/02/04 09:20:29;;;;;;;4.63;4.22;;;;;;;8.14;95.66;98865.84;5071045;28;20035;-72
2024/02/04 09:22:55;;;;;;;4.28;3.97;;;;;;;8.22;95.95;98889.72;5072465;28;20629;-72
2024/02/04 09:25:20;;;;;;;4.72;4.43;;;;;;;8.12;96.54;98862.50;5066565;28;20025;-72
2024/02/04 09:27:55;;;;;;;3.63;3.33;;;;;;;8.18;96.34;98888.50;5069935;28;20055;-72
2024/02/04 09:30:20;;;;;;;4.32;3.90;;;;;;;8.23;96.46;98906.66;5072619;28;20028;-72
2024/02/04 09:32:46;;;;;;;3.92;3.63;;;;;;;8.06;96.81;98906.28;5065613;28;20503;-71
2024/02/04 09:35:12;;;;;;;3.92;3.63;;;;;;;8.19;96.83;98914.28;5071218;28;20127;-70
2024/02/04 09:37:37;;;;;;;4.10;3.70;;;;;;;8.18;96.39;98904.59;5072033;28;20117;-71
2024/02/04 09:40:04;;;;;;;3.60;3.30;;;;;;;8.13;96.56;98917.00;5069610;28;20584;-71
2024/02/04 09:42:31;;;;;;;4.07;3.65;;;;;;;8.23;96.26;98901.28;5066299;28;20025;-71
2024/02/04 09:44:56;;;;;;;4.22;3.92;;;;;;;8.19;96.42;98890.13;5072073;28;20400;-71
2024/02/04 09:47:22;;;;;;;4.03;3.72;;;;;;;8.24;96.65;98887.66;5070506;28;20031;-70
2024/02/04 09:49:47;;;;;;;3.88;3.58;;;;;;;8.07;96.99;98856.16;5070631;28;20103;-71
2024/02/04 09:52:13;;;;;;;4.50;4.20;;;;;;;8.25;96.91;98878.56;5069916;28;20137;-70
2024/02/04 09:54:44;;;;;;;3.80;3.50;;;;;;;8.22;96.44;98884.34;5063183;28;20051;-70
2024/02/04 09:57:09;;;;;;;4.40;4.00;;;;;;;8.24;96.31;98890.34;5065712;28;20123;-70
2024/02/04 09:59:35;;;;;;;4.30;4.00;;;;;;;8.26;96.58;98890.97;5070436;28;20025;-71
2024/02/04 10:02:02;;;;;;;4.60;4.20;;;;;;;8.32;96.65;98890.13;5071642;28;20111;-71
2024/02/04 10:04:28;;;;;;;4.28;3.97;;;;;;;8.19;97.11;98890.13;5070345;28;20047;-71
2024/02/04 10:06:53;;;;;;;3.90;3.63;;;;;;;8.11;97.20;98882.34;5071992;28;20496;-71
2024/02/04 10:09:19;;;;;;;3.70;3.40;;;;;;;8.21;97.04;98909.53;5071670;28;20052;-71
2024/02/04 10:11:44;;;;;;;3.65;3.45;;;;;;;8.25;96.63;98899.22;5070479;28;20029;-71
2024/02/04 10:14:10;;;;;;;3.85;3.50;;;;;;;8.19;97.15;98906.25;5071440;28;20529;-71
2024/02/04 10:16:36;;;;;;;3.50;3.20;;;;;;;8.27;96.73;98900.69;5071551;28;20044;-71
2024/02/04 10:19:02;;;;;;;3.83;3.50;;;;;;;8.33;96.46;98886.41;5070268;28;20016;-71
2024/02/04 10:21:28;;;;;;;3.70;3.33;;;;;;;8.35;96.23;98880.84;5066258;28;20057;-71
2024/02/04 10:23:55;;;;;;;3.53;3.33;;;;;;;8.27;96.46;98887.25;5070260;28;20416;-71
2024/02/04 10:26:21;;;;;;;2.95;2.75;;;;;;;8.27;96.18;98892.63;5070260;28;20044;-70
2024/02/04 10:28:47;;;;;;;3.22;3.03;;;;;;;8.29;95.59;98895.91;5069905;28;20031;-71
2024/02/04 10:31:13;;;;;;;3.30;3.10;;;;;;;8.31;96.12;98898.38;5064639;28;20476;-71
2024/02/04 10:33:38;;;;;;;2.90;2.70;;;;;;;8.28;96.15;98888.09;5065724;28;20404;-71
2024/02/04 10:36:04;;;;;;;3.00;2.80;;;;;;;8.23;95.62;98886.03;5070097;28;20041;-71
2024/02/04 10:38:31;;;;;;;3.45;3.15;;;;;;;8.28;96.01;98872.00;5051311;28;20040;-71
2024/02/04 10:40:59;;;;;;;3.08;2.88;;;;;;;8.28;95.86;98872.78;5061714;28;20037;-71
2024/02/04 10:43:36;;;;;;;3.30;3.10;;;;;;;8.31;95.85;98872.38;5066901;28;20040;-71
2024/02/04 10:46:13;;;;;;;23.15;17.33;;;;;;;8.23;95.72;98880.66;5060878;28;20052;-70
2024/02/04 10:48:41;;;;;;;4.68;4.32;;;;;;;8.20;95.68;98875.69;5060666;28;20098;-70
2024/02/04 10:51:12;;;;;;;9.93;9.00;;;;;;;8.30;95.32;98870.75;5063326;28;20032;-70
2024/02/04 10:53:41;;;;;;;2.88;2.70;;;;;;;8.23;95.06;98848.47;5070933;28;20043;-71
2024/02/04 10:56:06;;;;;;;4.97;3.60;;;;;;;8.24;94.86;98860.81;5063423;28;20063;-71
2024/02/04 10:58:33;;;;;;;3.22;3.03;;;;;;;8.25;94.61;98867.00;5065639;28;20059;-70
2024/02/04 11:00:59;;;;;;;3.25;3.00;;;;;;;8.37;94.66;98865.34;5069559;28;20476;-71
2024/02/04 11:03:27;;;;;;;2.90;2.70;;;;;;;8.32;94.73;98862.47;5063826;28;20039;-71
2024/02/04 11:05:53;;;;;;;3.00;2.80;;;;;;;8.25;94.17;98857.13;5068216;28;20032;-71
2024/02/04 11:08:19;;;;;;;2.65;2.45;;;;;;;8.33;94.75;98846.16;5062751;28;20435;-72
2024/02/04 11:10:44;;;;;;;2.47;2.30;;;;;;;8.16;93.95;98820.84;5069533;28;20024;-71
2024/02/04 11:13:10;;;;;;;2.50;2.40;;;;;;;8.43;93.70;98842.19;5070720;28;20025;-71
2024/02/04 11:15:36;;;;;;;2.80;2.60;;;;;;;8.41;94.00;98828.16;5072386;28;20028;-71
2024/02/04 11:18:14;;;;;;;2.20;2.10;;;;;;;8.41;93.02;98822.78;5073085;28;20058;-71
2024/02/04 11:21:02;;;;;;;2.60;2.40;;;;;;;8.45;93.24;98797.19;5074608;28;20037;-71
2024/02/04 11:23:51;;;;;;;2.30;2.20;;;;;;;8.38;92.64;98812.50;5069310;28;20048;-70
2024/02/04 11:26:17;;;;;;;2.42;2.33;;;;;;;8.42;93.38;98803.81;5067736;28;20029;-71
2024/02/04 11:28:43;;;;;;;2.20;2.10;;;;;;;8.43;93.24;98809.97;5066129;28;20370;-71
2024/02/04 11:31:17;;;;;;;2.40;2.10;;;;;;;8.47;93.12;98801.28;5073075;28;20051;-73
2024/02/04 11:33:43;;;;;;;2.20;2.10;;;;;;;8.42;93.53;98792.25;5070353;28;20036;-72
2024/02/04 11:36:13;;;;;;;2.10;2.00;;;;;;;8.52;92.56;98792.59;5072804;28;20035;-73